sensor_id;sensor_type;location;lat;lon;timestamp;temperature;humidity
28087;DHT22;15392;48.912;8.380;2023-11-18T00:02:03;12.70;62.30
28087;DHT22;15392;48.912;8.380;2023-11-18T00:04:49;12.70;62.30
28087;DHT22;15392;48.912;8.380;2023-11-18T00:07:35;12.70;62.30
28087;DHT22;15392;48.912;8.380;2023-11-18T00:10:21;12.70;62.20
28087;DHT22;15392;48.912;8.380;2023-11-18T00:13:09;12.70;62.20
28087;DHT22;15392;48.912;8.380;2023-11-18T00:15:55;12.70;62.30
28087;DHT22;15392;48.912;8.380;2023-11-18T00:18:42;12.70;62.20
28087;DHT22;15392;48.912;8.380;2023-11-18T00:21:28;12.60;62.20
28087;DHT22;15392;48.912;8.380;2023-11-18T00:24:14;12.70;62.20
28087;DHT22;15392;48.912;8.380;2023-11-18T00:27:01;12.70;62.30
28087;DHT22;15392;48.912;8.380;2023-11-18T00:29:51;12.70;63.00
28087;DHT22;15392;48.912;8.380;2023-11-18T00:32:39;12.70;62.20
28087;DHT22;15392;48.912;8.380;2023-11-18T00:35:25;12.70;62.20
28087;DHT22;15392;48.912;8.380;2023-11-18T00:38:11;12.60;62.20
28087;DHT22;15392;48.912;8.380;2023-11-18T00:40:57;12.60;62.10
28087;DHT22;15392;48.912;8.380;2023-11-18T00:43:43;12.60;62.10
28087;DHT22;15392;48.912;8.380;2023-11-18T00:46:29;12.70;62.10
28087;DHT22;15392;48.912;8.380;2023-11-18T00:49:16;12.60;62.00
28087;DHT22;15392;48.912;8.380;2023-11-18T00:52:03;12.60;62.00
28087;DHT22;15392;48.912;8.380;2023-11-18T00:54:49;12.60;62.00
28087;DHT22;15392;48.912;8.380;2023-11-18T00:57:35;12.60;62.00
28087;DHT22;15392;48.912;8.380;2023-11-18T01:00:23;12.60;61.90
28087;DHT22;15392;48.912;8.380;2023-11-18T01:03:11;12.60;61.80
28087;DHT22;15392;48.912;8.380;2023-11-18T01:05:57;12.60;61.90
28087;DHT22;15392;48.912;8.380;2023-11-18T01:08:44;12.60;61.90
28087;DHT22;15392;48.912;8.380;2023-11-18T01:11:31;12.50;62.00
28087;DHT22;15392;48.912;8.380;2023-11-18T01:14:17;12.50;62.10
28087;DHT22;15392;48.912;8.380;2023-11-18T01:17:04;12.60;62.40
28087;DHT22;15392;48.912;8.380;2023-11-18T01:19:51;12.60;62.20
28087;DHT22;15392;48.912;8.380;2023-11-18T01:22:37;12.60;62.30
28087;DHT22;15392;48.912;8.380;2023-11-18T01:25:24;12.60;62.30
28087;DHT22;15392;48.912;8.380;2023-11-18T01:28:10;12.60;62.20
28087;DHT22;15392;48.912;8.380;2023-11-18T01:30:56;12.60;62.20
28087;DHT22;15392;48.912;8.380;2023-11-18T01:33:42;12.60;62.10
28087;DHT22;15392;48.912;8.380;2023-11-18T01:36:30;12.60;62.00
28087;DHT22;15392;48.912;8.380;2023-11-18T01:39:17;12.60;62.00
28087;DHT22;15392;48.912;8.380;2023-11-18T01:42:04;12.60;61.90
28087;DHT22;15392;48.912;8.380;2023-11-18T01:44:50;12.60;61.90
28087;DHT22;15392;48.912;8.380;2023-11-18T01:47:37;12.60;61.90
28087;DHT22;15392;48.912;8.380;2023-11-18T01:50:23;12.60;61.90
28087;DHT22;15392;48.912;8.380;2023-11-18T01:53:10;12.60;61.80
28087;DHT22;15392;48.912;8.380;2023-11-18T01:55:57;12.60;61.80
28087;DHT22;15392;48.912;8.380;2023-11-18T01:58:45;12.60;61.80
28087;DHT22;15392;48.912;8.380;2023-11-18T02:01:32;12.60;61.80
28087;DHT22;15392;48.912;8.380;2023-11-18T02:04:20;12.60;61.60
28087;DHT22;15392;48.912;8.380;2023-11-18T02:07:06;12.60;61.60
28087;DHT22;15392;48.912;8.380;2023-11-18T02:09:55;12.60;61.70
28087;DHT22;15392;48.912;8.380;2023-11-18T02:12:57;12.60;61.80
28087;DHT22;15392;48.912;8.380;2023-11-18T02:15:56;12.60;62.10
28087;DHT22;15392;48.912;8.380;2023-11-18T02:18:42;12.50;61.90
28087;DHT22;15392;48.912;8.380;2023-11-18T02:21:30;12.50;61.90
28087;DHT22;15392;48.912;8.380;2023-11-18T02:24:29;12.50;62.00
28087;DHT22;15392;48.912;8.380;2023-11-18T02:27:22;12.60;62.20
28087;DHT22;15392;48.912;8.380;2023-11-18T02:30:11;12.50;62.10
28087;DHT22;15392;48.912;8.380;2023-11-18T02:33:22;12.50;62.20
28087;DHT22;15392;48.912;8.380;2023-11-18T02:36:35;12.60;62.30
28087;DHT22;15392;48.912;8.380;2023-11-18T02:39:32;12.60;62.30
28087;DHT22;15392;48.912;8.380;2023-11-18T02:42:24;12.60;62.30
28087;DHT22;15392;48.912;8.380;2023-11-18T02:45:13;12.60;62.40
28087;DHT22;15392;48.912;8.380;2023-11-18T02:48:03;12.60;62.30
28087;DHT22;15392;48.912;8.380;2023-11-18T02:50:52;12.60;62.20
28087;DHT22;15392;48.912;8.380;2023-11-18T02:53:38;12.60;62.10
28087;DHT22;15392;48.912;8.380;2023-11-18T02:56:26;12.60;62.00
28087;DHT22;15392;48.912;8.380;2023-11-18T02:59:12;12.60;62.00
28087;DHT22;15392;48.912;8.380;2023-11-18T03:01:58;12.60;62.00
28087;DHT22;15392;48.912;8.380;2023-11-18T03:04:47;12.60;62.00
28087;DHT22;15392;48.912;8.380;2023-11-18T03:44:20;12.20;61.70
28087;DHT22;15392;48.912;8.380;2023-11-18T03:53:30;12.10;61.40
28087;DHT22;15392;48.912;8.380;2023-11-18T03:57:51;12.10;61.40
28087;DHT22;15392;48.912;8.380;2023-11-18T04:01:27;12.00;61.20
28087;DHT22;15392;48.912;8.380;2023-11-18T04:04:17;12.00;61.30
28087;DHT22;15392;48.912;8.380;2023-11-18T04:07:04;11.90;61.30
28087;DHT22;15392;48.912;8.380;2023-11-18T04:09:53;11.80;61.30
28087;DHT22;15392;48.912;8.380;2023-11-18T04:12:39;11.80;61.20
28087;DHT22;15392;48.912;8.380;2023-11-18T04:15:25;11.80;61.20
28087;DHT22;15392;48.912;8.380;2023-11-18T04:18:12;11.80;61.20
28087;DHT22;15392;48.912;8.380;2023-11-18T04:20:58;11.70;61.20
28087;DHT22;15392;48.912;8.380;2023-11-18T04:23:44;11.70;61.20
28087;DHT22;15392;48.912;8.380;2023-11-18T04:26:32;11.70;61.40
28087;DHT22;15392;48.912;8.380;2023-11-18T04:29:18;11.70;61.40
28087;DHT22;15392;48.912;8.380;2023-11-18T04:32:04;11.70;61.30
28087;DHT22;15392;48.912;8.380;2023-11-18T04:34:51;11.70;61.20
28087;DHT22;15392;48.912;8.380;2023-11-18T04:37:38;11.60;61.90
28087;DHT22;15392;48.912;8.380;2023-11-18T04:40:28;11.60;61.10
28087;DHT22;15392;48.912;8.380;2023-11-18T04:43:14;11.60;61.10
28087;DHT22;15392;48.912;8.380;2023-11-18T04:46:00;11.50;61.00
28087;DHT22;15392;48.912;8.380;2023-11-18T04:48:46;11.50;60.90
28087;DHT22;15392;48.912;8.380;2023-11-18T04:51:32;11.50;60.90
28087;DHT22;15392;48.912;8.380;2023-11-18T04:54:18;11.40;60.80
28087;DHT22;15392;48.912;8.380;2023-11-18T04:57:05;11.40;60.80
28087;DHT22;15392;48.912;8.380;2023-11-18T04:59:54;11.40;60.90
28087;DHT22;15392;48.912;8.380;2023-11-18T05:02:40;11.30;60.90
28087;DHT22;15392;48.912;8.380;2023-11-18T05:05:27;11.30;61.00
28087;DHT22;15392;48.912;8.380;2023-11-18T05:08:20;11.30;61.10
28087;DHT22;15392;48.912;8.380;2023-11-18T05:11:06;11.30;61.30
28087;DHT22;15392;48.912;8.380;2023-11-18T05:13:52;11.20;61.50
28087;DHT22;15392;48.912;8.380;2023-11-18T05:16:39;11.20;61.60
28087;DHT22;15392;48.912;8.380;2023-11-18T05:19:26;11.20;61.70
28087;DHT22;15392;48.912;8.380;2023-11-18T05:22:12;11.20;61.80
28087;DHT22;15392;48.912;8.380;2023-11-18T05:24:58;11.20;62.00
28087;DHT22;15392;48.912;8.380;2023-11-18T05:27:44;11.20;62.00
28087;DHT22;15392;48.912;8.380;2023-11-18T05:30:31;11.20;62.00
28087;DHT22;15392;48.912;8.380;2023-11-18T05:33:17;11.20;62.10
28087;DHT22;15392;48.912;8.380;2023-11-18T05:36:04;11.20;62.10
28087;DHT22;15392;48.912;8.380;2023-11-18T05:38:56;11.20;62.00
28087;DHT22;15392;48.912;8.380;2023-11-18T05:41:42;11.20;62.00
28087;DHT22;15392;48.912;8.380;2023-11-18T05:44:31;11.20;62.00
28087;DHT22;15392;48.912;8.380;2023-11-18T05:47:23;11.20;62.10
28087;DHT22;15392;48.912;8.380;2023-11-18T05:50:09;11.20;62.00
28087;DHT22;15392;48.912;8.380;2023-11-18T05:52:55;11.30;62.10
28087;DHT22;15392;48.912;8.380;2023-11-18T05:55:41;11.20;62.00
28087;DHT22;15392;48.912;8.380;2023-11-18T05:58:27;11.30;62.20
28087;DHT22;15392;48.912;8.380;2023-11-18T06:01:16;11.30;62.20
28087;DHT22;15392;48.912;8.380;2023-11-18T06:04:03;11.30;62.10
28087;DHT22;15392;48.912;8.380;2023-11-18T06:06:49;11.30;62.10
28087;DHT22;15392;48.912;8.380;2023-11-18T06:09:35;11.30;62.10
28087;DHT22;15392;48.912;8.380;2023-11-18T06:12:21;11.30;62.10
28087;DHT22;15392;48.912;8.380;2023-11-18T06:15:08;11.30;61.90
28087;DHT22;15392;48.912;8.380;2023-11-18T06:17:55;11.30;61.70
28087;DHT22;15392;48.912;8.380;2023-11-18T06:20:41;11.30;61.70
28087;DHT22;15392;48.912;8.380;2023-11-18T06:23:28;11.30;61.60
28087;DHT22;15392;48.912;8.380;2023-11-18T06:26:15;11.30;61.50
28087;DHT22;15392;48.912;8.380;2023-11-18T06:29:02;11.30;61.60
28087;DHT22;15392;48.912;8.380;2023-11-18T06:31:49;11.20;61.50
28087;DHT22;15392;48.912;8.380;2023-11-18T06:34:35;11.20;61.50
28087;DHT22;15392;48.912;8.380;2023-11-18T06:37:22;11.20;61.40
28087;DHT22;15392;48.912;8.380;2023-11-18T06:40:09;11.20;61.30
28087;DHT22;15392;48.912;8.380;2023-11-18T06:43:02;11.20;61.20
28087;DHT22;15392;48.912;8.380;2023-11-18T06:45:48;11.10;61.30
28087;DHT22;15392;48.912;8.380;2023-11-18T06:48:34;11.10;61.30
28087;DHT22;15392;48.912;8.380;2023-11-18T06:51:27;11.10;61.20
28087;DHT22;15392;48.912;8.380;2023-11-18T06:54:14;11.10;61.20
28087;DHT22;15392;48.912;8.380;2023-11-18T06:57:02;11.10;61.30
28087;DHT22;15392;48.912;8.380;2023-11-18T06:59:53;11.10;61.40
28087;DHT22;15392;48.912;8.380;2023-11-18T07:02:39;11.10;61.50
28087;DHT22;15392;48.912;8.380;2023-11-18T07:05:25;11.10;61.60
28087;DHT22;15392;48.912;8.380;2023-11-18T07:08:11;11.00;61.50
28087;DHT22;15392;48.912;8.380;2023-11-18T07:10:58;11.00;61.30
28087;DHT22;15392;48.912;8.380;2023-11-18T07:13:45;11.00;61.30
28087;DHT22;15392;48.912;8.380;2023-11-18T07:16:33;11.00;61.40
28087;DHT22;15392;48.912;8.380;2023-11-18T07:19:19;11.00;61.50
28087;DHT22;15392;48.912;8.380;2023-11-18T07:22:10;11.00;61.70
28087;DHT22;15392;48.912;8.380;2023-11-18T07:24:56;11.00;61.90
28087;DHT22;15392;48.912;8.380;2023-11-18T07:27:43;11.00;61.80
28087;DHT22;15392;48.912;8.380;2023-11-18T07:30:29;11.00;61.90
28087;DHT22;15392;48.912;8.380;2023-11-18T07:33:16;11.10;62.00
28087;DHT22;15392;48.912;8.380;2023-11-18T07:36:03;11.10;62.20
28087;DHT22;15392;48.912;8.380;2023-11-18T07:38:51;11.10;62.20
28087;DHT22;15392;48.912;8.380;2023-11-18T07:41:37;11.10;62.20
28087;DHT22;15392;48.912;8.380;2023-11-18T07:44:23;11.20;62.30
28087;DHT22;15392;48.912;8.380;2023-11-18T07:47:10;11.20;62.30
28087;DHT22;15392;48.912;8.380;2023-11-18T07:49:58;11.20;62.30
28087;DHT22;15392;48.912;8.380;2023-11-18T07:52:45;11.20;62.30
28087;DHT22;15392;48.912;8.380;2023-11-18T07:55:34;11.30;62.40
28087;DHT22;15392;48.912;8.380;2023-11-18T07:58:20;11.40;62.50
28087;DHT22;15392;48.912;8.380;2023-11-18T08:01:08;11.40;62.40
28087;DHT22;15392;48.912;8.380;2023-11-18T08:03:54;11.40;62.30
28087;DHT22;15392;48.912;8.380;2023-11-18T08:06:41;11.40;62.30
28087;DHT22;15392;48.912;8.380;2023-11-18T08:09:28;11.50;62.30
28087;DHT22;15392;48.912;8.380;2023-11-18T08:12:17;11.50;62.30
28087;DHT22;15392;48.912;8.380;2023-11-18T08:15:03;11.50;62.20
28087;DHT22;15392;48.912;8.380;2023-11-18T08:17:51;11.60;62.30
28087;DHT22;15392;48.912;8.380;2023-11-18T08:20:39;11.60;62.20
28087;DHT22;15392;48.912;8.380;2023-11-18T08:23:25;11.60;62.20
28087;DHT22;15392;48.912;8.380;2023-11-18T08:26:13;11.70;62.20
28087;DHT22;15392;48.912;8.380;2023-11-18T08:28:59;11.70;62.20
28087;DHT22;15392;48.912;8.380;2023-11-18T08:31:46;11.70;62.20
28087;DHT22;15392;48.912;8.380;2023-11-18T08:34:32;11.80;62.20
28087;DHT22;15392;48.912;8.380;2023-11-18T08:37:23;11.80;63.00
28087;DHT22;15392;48.912;8.380;2023-11-18T08:40:09;11.80;62.20
28087;DHT22;15392;48.912;8.380;2023-11-18T08:43:01;11.80;62.20
28087;DHT22;15392;48.912;8.380;2023-11-18T08:45:47;11.90;62.20
28087;DHT22;15392;48.912;8.380;2023-11-18T08:48:35;11.90;62.20
28087;DHT22;15392;48.912;8.380;2023-11-18T08:51:21;12.00;62.20
28087;DHT22;15392;48.912;8.380;2023-11-18T08:54:07;12.00;62.20
28087;DHT22;15392;48.912;8.380;2023-11-18T08:57:07;12.00;62.20
28087;DHT22;15392;48.912;8.380;2023-11-18T09:00:09;12.10;62.20
28087;DHT22;15392;48.912;8.380;2023-11-18T09:03:17;12.10;62.20
28087;DHT22;15392;48.912;8.380;2023-11-18T09:06:11;12.10;62.10
28087;DHT22;15392;48.912;8.380;2023-11-18T09:09:04;12.20;62.00
28087;DHT22;15392;48.912;8.380;2023-11-18T09:11:56;12.20;62.00
28087;DHT22;15392;48.912;8.380;2023-11-18T09:14:43;12.20;62.00
28087;DHT22;15392;48.912;8.380;2023-11-18T09:17:30;12.20;62.00
28087;DHT22;15392;48.912;8.380;2023-11-18T09:20:16;12.30;62.10
28087;DHT22;15392;48.912;8.380;2023-11-18T09:23:13;12.30;62.10
28087;DHT22;15392;48.912;8.380;2023-11-18T09:26:01;12.40;62.20
28087;DHT22;15392;48.912;8.380;2023-11-18T09:28:53;12.40;62.30
28087;DHT22;15392;48.912;8.380;2023-11-18T09:31:39;12.50;62.40
28087;DHT22;15392;48.912;8.380;2023-11-18T09:34:27;12.60;62.40
28087;DHT22;15392;48.912;8.380;2023-11-18T09:37:18;12.60;62.30
28087;DHT22;15392;48.912;8.380;2023-11-18T09:40:07;12.70;62.40
28087;DHT22;15392;48.912;8.380;2023-11-18T09:42:58;12.80;62.40
28087;DHT22;15392;48.912;8.380;2023-11-18T09:45:46;12.80;62.20
28087;DHT22;15392;48.912;8.380;2023-11-18T09:48:33;12.90;62.10
28087;DHT22;15392;48.912;8.380;2023-11-18T09:51:28;13.00;61.90
28087;DHT22;15392;48.912;8.380;2023-11-18T09:54:39;13.00;61.80
28087;DHT22;15392;48.912;8.380;2023-11-18T09:57:32;13.10;61.80
28087;DHT22;15392;48.912;8.380;2023-11-18T10:00:23;13.10;61.70
28087;DHT22;15392;48.912;8.380;2023-11-18T10:03:13;13.20;61.70
28087;DHT22;15392;48.912;8.380;2023-11-18T10:06:04;13.30;61.70
28087;DHT22;15392;48.912;8.380;2023-11-18T10:08:52;13.30;61.50
28087;DHT22;15392;48.912;8.380;2023-11-18T10:11:39;13.40;61.70
28087;DHT22;15392;48.912;8.380;2023-11-18T10:14:27;13.40;61.60
28087;DHT22;15392;48.912;8.380;2023-11-18T10:17:13;13.40;61.40
28087;DHT22;15392;48.912;8.380;2023-11-18T10:20:00;13.50;61.30
28087;DHT22;15392;48.912;8.380;2023-11-18T10:22:46;13.50;61.20
28087;DHT22;15392;48.912;8.380;2023-11-18T10:25:32;13.60;61.00
28087;DHT22;15392;48.912;8.380;2023-11-18T10:28:33;13.60;60.90
28087;DHT22;15392;48.912;8.380;2023-11-18T10:31:21;13.70;61.00
28087;DHT22;15392;48.912;8.380;2023-11-18T10:34:10;13.70;60.80
28087;DHT22;15392;48.912;8.380;2023-11-18T10:37:02;13.80;60.70
28087;DHT22;15392;48.912;8.380;2023-11-18T10:39:49;13.70;60.40
28087;DHT22;15392;48.912;8.380;2023-11-18T10:42:38;13.80;60.30
28087;DHT22;15392;48.912;8.380;2023-11-18T10:45:24;13.80;60.10
28087;DHT22;15392;48.912;8.380;2023-11-18T10:48:13;13.80;60.10
28087;DHT22;15392;48.912;8.380;2023-11-18T10:51:03;13.80;60.20
28087;DHT22;15392;48.912;8.380;2023-11-18T10:53:51;13.80;60.30
28087;DHT22;15392;48.912;8.380;2023-11-18T10:56:50;13.80;60.50
28087;DHT22;15392;48.912;8.380;2023-11-18T11:00:02;13.90;60.40
28087;DHT22;15392;48.912;8.380;2023-11-18T11:02:58;13.90;60.30
28087;DHT22;15392;48.912;8.380;2023-11-18T11:05:44;13.90;60.40
28087;DHT22;15392;48.912;8.380;2023-11-18T11:08:30;13.90;60.40
28087;DHT22;15392;48.912;8.380;2023-11-18T11:11:21;13.90;60.30
28087;DHT22;15392;48.912;8.380;2023-11-18T11:14:12;13.90;61.10
28087;DHT22;15392;48.912;8.380;2023-11-18T11:17:07;13.90;60.20
28087;DHT22;15392;48.912;8.380;2023-11-18T11:20:07;13.90;60.20
28087;DHT22;15392;48.912;8.380;2023-11-18T11:23:27;13.90;60.40
28087;DHT22;15392;48.912;8.380;2023-11-18T11:30:06;13.90;60.10
28087;DHT22;15392;48.912;8.380;2023-11-18T11:33:43;14.00;60.00
28087;DHT22;15392;48.912;8.380;2023-11-18T11:36:42;13.90;59.90
28087;DHT22;15392;48.912;8.380;2023-11-18T11:39:31;13.90;60.20
28087;DHT22;15392;48.912;8.380;2023-11-18T11:42:23;13.90;60.20
28087;DHT22;15392;48.912;8.380;2023-11-18T11:45:09;13.90;60.20
28087;DHT22;15392;48.912;8.380;2023-11-18T11:48:07;13.90;60.30
28087;DHT22;15392;48.912;8.380;2023-11-18T11:51:22;13.90;60.20
28087;DHT22;15392;48.912;8.380;2023-11-18T11:54:16;14.00;60.40
28087;DHT22;15392;48.912;8.380;2023-11-18T11:57:06;14.00;60.50
28087;DHT22;15392;48.912;8.380;2023-11-18T12:02:48;14.00;60.50
28087;DHT22;15392;48.912;8.380;2023-11-18T12:05:35;14.00;60.50
28087;DHT22;15392;48.912;8.380;2023-11-18T12:08:29;14.00;60.60
28087;DHT22;15392;48.912;8.380;2023-11-18T12:11:17;14.10;60.70
28087;DHT22;15392;48.912;8.380;2023-11-18T12:14:07;14.00;60.30
28087;DHT22;15392;48.912;8.380;2023-11-18T12:17:09;14.00;60.30
28087;DHT22;15392;48.912;8.380;2023-11-18T12:19:56;14.10;60.40
28087;DHT22;15392;48.912;8.380;2023-11-18T12:23:04;14.10;60.40
28087;DHT22;15392;48.912;8.380;2023-11-18T12:25:59;14.10;60.40
28087;DHT22;15392;48.912;8.380;2023-11-18T12:28:48;14.10;60.50
28087;DHT22;15392;48.912;8.380;2023-11-18T12:31:40;14.10;60.30
28087;DHT22;15392;48.912;8.380;2023-11-18T12:34:53;14.10;60.30
28087;DHT22;15392;48.912;8.380;2023-11-18T12:40:55;14.10;60.40
28087;DHT22;15392;48.912;8.380;2023-11-18T12:47:24;14.10;60.00
28087;DHT22;15392;48.912;8.380;2023-11-18T12:50:15;14.10;60.00
28087;DHT22;15392;48.912;8.380;2023-11-18T12:53:11;14.10;60.00
28087;DHT22;15392;48.912;8.380;2023-11-18T12:56:00;14.10;60.00
28087;DHT22;15392;48.912;8.380;2023-11-18T12:58:46;14.00;59.80
28087;DHT22;15392;48.912;8.380;2023-11-18T13:01:33;14.00;59.80
28087;DHT22;15392;48.912;8.380;2023-11-18T13:04:22;14.00;59.80
28087;DHT22;15392;48.912;8.380;2023-11-18T13:07:09;14.10;59.90
28087;DHT22;15392;48.912;8.380;2023-11-18T13:09:56;14.00;59.80
28087;DHT22;15392;48.912;8.380;2023-11-18T13:12:43;14.00;59.90
28087;DHT22;15392;48.912;8.380;2023-11-18T13:15:31;14.00;60.00
28087;DHT22;15392;48.912;8.380;2023-11-18T13:18:17;14.00;60.10
28087;DHT22;15392;48.912;8.380;2023-11-18T13:21:03;14.10;60.20
28087;DHT22;15392;48.912;8.380;2023-11-18T13:23:52;14.00;60.20
28087;DHT22;15392;48.912;8.380;2023-11-18T13:26:38;14.00;60.20
28087;DHT22;15392;48.912;8.380;2023-11-18T13:29:24;14.10;60.30
28087;DHT22;15392;48.912;8.380;2023-11-18T13:32:11;14.10;60.40
28087;DHT22;15392;48.912;8.380;2023-11-18T13:34:57;14.10;60.50
28087;DHT22;15392;48.912;8.380;2023-11-18T13:37:47;14.10;60.60
28087;DHT22;15392;48.912;8.380;2023-11-18T13:40:46;14.10;60.60
28087;DHT22;15392;48.912;8.380;2023-11-18T13:43:43;14.20;60.50
28087;DHT22;15392;48.912;8.380;2023-11-18T13:46:44;14.10;60.70
28087;DHT22;15392;48.912;8.380;2023-11-18T13:49:30;14.10;60.20
28087;DHT22;15392;48.912;8.380;2023-11-18T13:52:22;14.10;60.20
28087;DHT22;15392;48.912;8.380;2023-11-18T13:55:08;14.10;60.30
28087;DHT22;15392;48.912;8.380;2023-11-18T13:58:02;14.10;60.50
28087;DHT22;15392;48.912;8.380;2023-11-18T14:00:50;14.10;60.40
28087;DHT22;15392;48.912;8.380;2023-11-18T14:03:37;14.10;60.40
28087;DHT22;15392;48.912;8.380;2023-11-18T14:06:24;14.20;60.30
28087;DHT22;15392;48.912;8.380;2023-11-18T14:09:13;14.10;60.20
28087;DHT22;15392;48.912;8.380;2023-11-18T14:11:59;14.20;60.30
28087;DHT22;15392;48.912;8.380;2023-11-18T14:14:45;14.20;60.40
28087;DHT22;15392;48.912;8.380;2023-11-18T14:17:31;14.10;60.50
28087;DHT22;15392;48.912;8.380;2023-11-18T14:20:17;14.20;60.70
28087;DHT22;15392;48.912;8.380;2023-11-18T14:23:03;14.20;60.70
28087;DHT22;15392;48.912;8.380;2023-11-18T14:25:49;14.30;61.50
28087;DHT22;15392;48.912;8.380;2023-11-18T14:28:35;14.30;60.60
28087;DHT22;15392;48.912;8.380;2023-11-18T14:31:21;14.30;60.50
28087;DHT22;15392;48.912;8.380;2023-11-18T14:34:10;14.30;60.60
28087;DHT22;15392;48.912;8.380;2023-11-18T14:36:57;14.30;60.60
28087;DHT22;15392;48.912;8.380;2023-11-18T14:39:43;14.40;60.50
28087;DHT22;15392;48.912;8.380;2023-11-18T14:42:30;14.40;60.50
28087;DHT22;15392;48.912;8.380;2023-11-18T14:45:17;14.40;60.40
28087;DHT22;15392;48.912;8.380;2023-11-18T14:48:03;14.40;60.40
28087;DHT22;15392;48.912;8.380;2023-11-18T14:50:49;14.40;60.40
28087;DHT22;15392;48.912;8.380;2023-11-18T14:53:36;14.40;60.30
28087;DHT22;15392;48.912;8.380;2023-11-18T14:56:23;14.50;60.40
28087;DHT22;15392;48.912;8.380;2023-11-18T14:59:09;14.50;60.20
28087;DHT22;15392;48.912;8.380;2023-11-18T15:01:56;14.50;60.20
28087;DHT22;15392;48.912;8.380;2023-11-18T15:04:43;14.50;60.20
28087;DHT22;15392;48.912;8.380;2023-11-18T15:07:29;14.50;60.20
28087;DHT22;15392;48.912;8.380;2023-11-18T15:10:16;14.50;60.30
28087;DHT22;15392;48.912;8.380;2023-11-18T15:13:05;14.50;60.40
28087;DHT22;15392;48.912;8.380;2023-11-18T15:15:51;14.50;60.40
28087;DHT22;15392;48.912;8.380;2023-11-18T15:18:37;14.50;60.40
28087;DHT22;15392;48.912;8.380;2023-11-18T15:21:24;14.50;60.40
28087;DHT22;15392;48.912;8.380;2023-11-18T15:24:10;14.50;60.50
28087;DHT22;15392;48.912;8.380;2023-11-18T15:26:56;14.50;60.60
28087;DHT22;15392;48.912;8.380;2023-11-18T15:29:43;14.50;60.50
28087;DHT22;15392;48.912;8.380;2023-11-18T15:32:35;14.50;60.50
28087;DHT22;15392;48.912;8.380;2023-11-18T15:35:21;14.50;60.40
28087;DHT22;15392;48.912;8.380;2023-11-18T15:38:08;14.50;60.20
28087;DHT22;15392;48.912;8.380;2023-11-18T15:40:54;14.50;60.00
28087;DHT22;15392;48.912;8.380;2023-11-18T15:43:40;14.50;59.80
28087;DHT22;15392;48.912;8.380;2023-11-18T15:46:26;14.50;59.70
28087;DHT22;15392;48.912;8.380;2023-11-18T15:49:12;14.50;59.70
28087;DHT22;15392;48.912;8.380;2023-11-18T15:51:58;14.40;59.80
28087;DHT22;15392;48.912;8.380;2023-11-18T15:54:44;14.50;60.00
28087;DHT22;15392;48.912;8.380;2023-11-18T15:57:30;14.40;60.10
28087;DHT22;15392;48.912;8.380;2023-11-18T16:00:16;14.40;60.10
28087;DHT22;15392;48.912;8.380;2023-11-18T16:03:03;14.40;60.30
28087;DHT22;15392;48.912;8.380;2023-11-18T16:05:53;14.40;60.30
28087;DHT22;15392;48.912;8.380;2023-11-18T16:08:40;14.40;60.30
28087;DHT22;15392;48.912;8.380;2023-11-18T16:11:26;14.40;60.20
28087;DHT22;15392;48.912;8.380;2023-11-18T16:14:12;14.40;60.10
28087;DHT22;15392;48.912;8.380;2023-11-18T16:16:58;14.40;60.10
28087;DHT22;15392;48.912;8.380;2023-11-18T16:19:44;14.30;59.90
28087;DHT22;15392;48.912;8.380;2023-11-18T16:22:30;14.30;59.90
28087;DHT22;15392;48.912;8.380;2023-11-18T16:25:26;14.30;59.80
28087;DHT22;15392;48.912;8.380;2023-11-18T16:28:13;14.20;59.70
28087;DHT22;15392;48.912;8.380;2023-11-18T16:30:59;14.20;59.80
28087;DHT22;15392;48.912;8.380;2023-11-18T16:33:46;14.10;59.80
28087;DHT22;15392;48.912;8.380;2023-11-18T16:36:32;14.10;59.90
28087;DHT22;15392;48.912;8.380;2023-11-18T16:39:18;14.10;59.90
28087;DHT22;15392;48.912;8.380;2023-11-18T16:42:06;14.10;60.00
28087;DHT22;15392;48.912;8.380;2023-11-18T16:44:52;14.10;60.10
28087;DHT22;15392;48.912;8.380;2023-11-18T16:47:39;14.10;60.10
28087;DHT22;15392;48.912;8.380;2023-11-18T16:50:27;14.10;60.20
28087;DHT22;15392;48.912;8.380;2023-11-18T16:53:13;14.00;60.10
28087;DHT22;15392;48.912;8.380;2023-11-18T16:55:59;14.00;60.20
28087;DHT22;15392;48.912;8.380;2023-11-18T16:58:45;14.00;60.30
28087;DHT22;15392;48.912;8.380;2023-11-18T17:01:30;14.00;60.30
28087;DHT22;15392;48.912;8.380;2023-11-18T17:04:16;14.00;60.30
28087;DHT22;15392;48.912;8.380;2023-11-18T17:07:03;14.00;60.30
28087;DHT22;15392;48.912;8.380;2023-11-18T17:09:49;14.00;60.30
28087;DHT22;15392;48.912;8.380;2023-11-18T17:12:36;14.00;60.20
28087;DHT22;15392;48.912;8.380;2023-11-18T17:15:23;14.00;60.20
28087;DHT22;15392;48.912;8.380;2023-11-18T17:18:09;13.90;60.10
28087;DHT22;15392;48.912;8.380;2023-11-18T17:20:56;13.90;60.00
28087;DHT22;15392;48.912;8.380;2023-11-18T17:23:42;13.90;60.10
28087;DHT22;15392;48.912;8.380;2023-11-18T17:26:34;13.90;60.10
28087;DHT22;15392;48.912;8.380;2023-11-18T17:29:24;13.90;60.00
28087;DHT22;15392;48.912;8.380;2023-11-18T17:32:11;13.90;60.00
28087;DHT22;15392;48.912;8.380;2023-11-18T17:34:57;13.90;59.80
28087;DHT22;15392;48.912;8.380;2023-11-18T17:37:46;13.90;59.60
28087;DHT22;15392;48.912;8.380;2023-11-18T17:40:32;13.90;59.70
28087;DHT22;15392;48.912;8.380;2023-11-18T17:43:18;13.90;59.80
28087;DHT22;15392;48.912;8.380;2023-11-18T17:46:04;13.90;59.80
28087;DHT22;15392;48.912;8.380;2023-11-18T17:48:50;13.90;59.80
28087;DHT22;15392;48.912;8.380;2023-11-18T17:51:36;13.90;59.60
28087;DHT22;15392;48.912;8.380;2023-11-18T17:54:24;13.90;59.60
28087;DHT22;15392;48.912;8.380;2023-11-18T17:57:11;13.90;59.70
28087;DHT22;15392;48.912;8.380;2023-11-18T18:00:00;13.90;59.90
28087;DHT22;15392;48.912;8.380;2023-11-18T18:02:46;13.90;59.90
28087;DHT22;15392;48.912;8.380;2023-11-18T18:05:32;13.90;59.90
28087;DHT22;15392;48.912;8.380;2023-11-18T18:08:19;13.90;59.90
28087;DHT22;15392;48.912;8.380;2023-11-18T18:11:05;13.90;59.90
28087;DHT22;15392;48.912;8.380;2023-11-18T18:13:53;13.90;60.00
28087;DHT22;15392;48.912;8.380;2023-11-18T18:16:40;13.90;60.00
28087;DHT22;15392;48.912;8.380;2023-11-18T18:19:26;13.90;60.00
28087;DHT22;15392;48.912;8.380;2023-11-18T18:22:12;13.90;59.90
28087;DHT22;15392;48.912;8.380;2023-11-18T18:24:58;13.90;60.00
28087;DHT22;15392;48.912;8.380;2023-11-18T18:27:44;13.90;60.00
28087;DHT22;15392;48.912;8.380;2023-11-18T18:30:31;13.90;60.00
28087;DHT22;15392;48.912;8.380;2023-11-18T18:33:17;13.90;60.00
28087;DHT22;15392;48.912;8.380;2023-11-18T18:36:04;13.90;60.00
28087;DHT22;15392;48.912;8.380;2023-11-18T18:38:51;13.90;60.00
28087;DHT22;15392;48.912;8.380;2023-11-18T18:41:37;13.90;60.00
28087;DHT22;15392;48.912;8.380;2023-11-18T18:44:24;13.90;59.90